createdAt,value
2018-06-29T00:02:08.632Z,100.00
2018-06-29T00:04:38.621Z,100.00
2018-06-29T00:07:08.464Z,100.00
2018-06-29T00:09:38.225Z,100.00
2018-06-29T00:12:08.008Z,100.00
2018-06-29T00:14:37.834Z,100.00
2018-06-29T00:17:07.602Z,100.00
2018-06-29T00:19:37.420Z,100.00
2018-06-29T00:22:07.237Z,100.00
2018-06-29T00:24:37.055Z,100.00
2018-06-29T00:27:06.853Z,100.00
2018-06-29T00:29:36.628Z,100.00
2018-06-29T00:32:06.759Z,100.00
2018-06-29T00:34:36.572Z,100.00
2018-06-29T00:37:06.399Z,100.00
2018-06-29T00:39:36.449Z,100.00
2018-06-29T00:42:06.172Z,100.00
2018-06-29T00:44:36.006Z,100.00
2018-06-29T00:47:05.732Z,100.00
2018-06-29T00:49:35.520Z,100.00
2018-06-29T00:52:05.282Z,100.00
2018-06-29T00:54:35.093Z,100.00
2018-06-29T00:57:04.779Z,100.00
2018-06-29T00:59:34.559Z,100.00
2018-06-29T01:02:04.347Z,100.00
2018-06-29T01:04:34.095Z,100.00
2018-06-29T01:07:04.189Z,100.00
2018-06-29T01:09:34.369Z,100.00
2018-06-29T01:12:04.562Z,100.00
2018-06-29T01:14:34.289Z,100.00
2018-06-29T01:17:04.399Z,100.00
2018-06-29T01:19:34.145Z,100.00
2018-06-29T01:22:03.929Z,100.00
2018-06-29T01:24:33.623Z,100.00
2018-06-29T01:27:03.440Z,100.00
2018-06-29T01:29:33.438Z,100.00
2018-06-29T01:32:03.401Z,100.00
2018-06-29T01:34:33.170Z,100.00
2018-06-29T01:37:02.947Z,100.00
2018-06-29T01:39:32.720Z,100.00
2018-06-29T01:42:02.592Z,100.00
2018-06-29T01:44:32.301Z,100.00
2018-06-29T01:47:02.196Z,100.00
2018-06-29T01:49:31.899Z,100.00
2018-06-29T01:52:01.700Z,100.00
2018-06-29T01:54:31.445Z,100.00
2018-06-29T01:57:01.256Z,100.00
2018-06-29T01:59:31.188Z,100.00
2018-06-29T02:02:00.979Z,100.00
2018-06-29T02:04:30.677Z,100.00
2018-06-29T02:07:00.408Z,100.00
2018-06-29T02:09:30.241Z,100.00
2018-06-29T02:12:00.148Z,100.00
2018-06-29T02:14:29.947Z,100.00
2018-06-29T02:16:59.680Z,100.00
2018-06-29T02:19:29.482Z,100.00
2018-06-29T02:21:59.209Z,100.00
2018-06-29T02:24:28.994Z,100.00
2018-06-29T02:26:58.916Z,100.00
2018-06-29T02:29:28.869Z,100.00
2018-06-29T02:31:58.713Z,100.00
2018-06-29T02:34:28.660Z,100.00
2018-06-29T02:36:58.385Z,100.00
2018-06-29T02:39:28.291Z,100.00
2018-06-29T02:41:58.274Z,100.00
2018-06-29T02:44:28.040Z,100.00
2018-06-29T02:46:57.844Z,100.00
2018-06-29T02:49:27.578Z,100.00
2018-06-29T02:51:57.317Z,100.00
2018-06-29T02:54:27.093Z,100.00
2018-06-29T02:56:56.893Z,100.00
2018-06-29T02:59:26.608Z,100.00
2018-06-29T03:01:56.361Z,100.00
2018-06-29T03:04:26.131Z,100.00
2018-06-29T03:06:56.330Z,100.00
2018-06-29T03:09:26.091Z,100.00
2018-06-29T03:11:55.849Z,100.00
2018-06-29T03:14:25.589Z,100.00
2018-06-29T03:16:55.325Z,100.00
2018-06-29T03:19:25.177Z,100.00
2018-06-29T03:21:55.199Z,100.00
2018-06-29T03:24:24.981Z,100.00
2018-06-29T03:26:55.028Z,100.00
2018-06-29T03:29:24.798Z,100.00
2018-06-29T03:31:54.620Z,100.00
2018-06-29T03:34:24.412Z,100.00
2018-06-29T03:36:54.182Z,100.00
2018-06-29T03:39:24.175Z,100.00
2018-06-29T03:41:53.917Z,100.00
2018-06-29T03:44:23.655Z,100.00
2018-06-29T03:46:53.383Z,100.00
2018-06-29T03:49:23.248Z,100.00
2018-06-29T03:51:53.080Z,100.00
2018-06-29T03:54:22.880Z,100.00
2018-06-29T03:56:52.712Z,100.00
2018-06-29T03:59:22.552Z,100.00
2018-06-29T04:01:52.310Z,100.00
2018-06-29T04:04:22.143Z,100.00
2018-06-29T04:06:51.868Z,100.00
2018-06-29T04:09:21.733Z,100.00
2018-06-29T04:11:51.540Z,100.00
2018-06-29T04:14:21.433Z,100.00
2018-06-29T04:16:51.452Z,100.00
2018-06-29T04:19:21.169Z,100.00
2018-06-29T04:21:50.963Z,100.00
2018-06-29T04:24:20.817Z,100.00
2018-06-29T04:26:50.650Z,100.00
2018-06-29T04:29:20.710Z,100.00
2018-06-29T04:31:50.447Z,100.00
2018-06-29T04:34:20.211Z,100.00
2018-06-29T04:36:50.137Z,100.00
2018-06-29T04:39:19.940Z,100.00
2018-06-29T04:41:49.740Z,100.00
2018-06-29T04:44:19.436Z,100.00
2018-06-29T04:46:49.211Z,100.00
2018-06-29T04:49:19.036Z,100.00
2018-06-29T04:51:48.754Z,100.00
2018-06-29T04:54:18.796Z,100.00
2018-06-29T04:56:48.523Z,100.00
2018-06-29T04:59:18.284Z,100.00
2018-06-29T05:01:48.089Z,100.00
2018-06-29T05:04:18.005Z,100.00
2018-06-29T05:06:47.720Z,100.00
2018-06-29T05:09:17.585Z,100.00
2018-06-29T05:11:47.424Z,100.00
2018-06-29T05:14:17.236Z,100.00
2018-06-29T05:16:46.962Z,100.00
2018-06-29T05:19:16.683Z,100.00
2018-06-29T05:21:46.413Z,100.00
2018-06-29T05:24:16.244Z,100.00
2018-06-29T05:26:45.921Z,100.00
2018-06-29T05:29:15.689Z,100.00
2018-06-29T05:31:45.471Z,100.00
2018-06-29T05:34:15.262Z,100.00
2018-06-29T05:36:45.372Z,100.00
2018-06-29T05:39:15.237Z,100.00
2018-06-29T05:41:45.429Z,100.00
2018-06-29T05:44:15.188Z,100.00
2018-06-29T05:46:44.973Z,100.00
2018-06-29T05:49:14.773Z,100.00
2018-06-29T05:51:44.530Z,100.00
2018-06-29T05:54:14.591Z,100.00
2018-06-29T05:56:44.407Z,100.00
2018-06-29T05:59:14.290Z,100.00
2018-06-29T06:01:44.177Z,100.00
2018-06-29T06:04:13.896Z,100.00
2018-06-29T06:06:43.644Z,100.00
2018-06-29T06:09:13.680Z,100.00
2018-06-29T06:11:43.427Z,100.00
2018-06-29T06:14:13.219Z,100.00
2018-06-29T06:16:43.147Z,100.00
2018-06-29T06:19:23.657Z,100.00
2018-06-29T06:21:54.691Z,100.00
2018-06-29T06:24:24.433Z,100.00
2018-06-29T06:26:54.649Z,100.00
2018-06-29T06:29:24.542Z,100.00
2018-06-29T06:31:54.288Z,100.00
2018-06-29T06:34:24.184Z,100.00
2018-06-29T06:36:54.424Z,100.00
2018-06-29T06:39:24.117Z,100.00
2018-06-29T06:41:53.915Z,100.00
2018-06-29T06:44:23.609Z,100.00
2018-06-29T06:46:53.340Z,100.00
2018-06-29T06:49:23.102Z,100.00
2018-06-29T06:51:52.931Z,100.00
2018-06-29T06:54:23.184Z,100.00
2018-06-29T06:56:53.062Z,100.00
2018-06-29T06:59:22.842Z,100.00
2018-06-29T07:01:52.966Z,100.00
2018-06-29T07:04:22.640Z,100.00
2018-06-29T07:06:52.428Z,100.00
2018-06-29T07:09:22.160Z,100.00
2018-06-29T07:11:51.898Z,100.00
2018-06-29T07:14:21.929Z,100.00
2018-06-29T07:16:51.621Z,100.00
2018-06-29T07:19:21.729Z,100.00
2018-06-29T07:21:51.448Z,100.00
2018-06-29T07:24:21.279Z,100.00
2018-06-29T07:26:50.996Z,100.00
2018-06-29T07:29:20.761Z,100.00
2018-06-29T07:31:50.452Z,100.00
2018-06-29T07:34:20.248Z,100.00
2018-06-29T07:36:50.007Z,99.57
2018-06-29T07:39:19.794Z,99.42
2018-06-29T07:41:49.520Z,96.75
2018-06-29T07:44:19.316Z,94.92
2018-06-29T07:46:49.048Z,95.50
2018-06-29T07:49:18.805Z,96.17
2018-06-29T07:51:48.512Z,95.24
2018-06-29T07:54:18.193Z,93.10
2018-06-29T07:56:47.988Z,93.91
2018-06-29T07:59:17.701Z,91.17
2018-06-29T08:01:47.408Z,90.84
2018-06-29T08:04:17.084Z,89.25
2018-06-29T08:06:46.901Z,89.11
2018-06-29T08:09:16.614Z,90.38
2018-06-29T08:11:46.345Z,89.89
2018-06-29T08:14:16.108Z,86.55
2018-06-29T08:16:45.852Z,86.77
2018-06-29T08:19:15.595Z,84.28
2018-06-29T08:21:45.259Z,86.77
2018-06-29T08:24:14.961Z,87.08
2018-06-29T08:26:44.683Z,85.74
2018-06-29T08:29:14.536Z,83.86
2018-06-29T08:31:44.273Z,85.80
2018-06-29T08:34:13.959Z,84.48
2018-06-29T08:36:43.633Z,84.22
2018-06-29T08:39:13.312Z,85.30
2018-06-29T08:41:43.012Z,84.36
2018-06-29T08:44:12.769Z,84.83
2018-06-29T08:46:42.776Z,84.79
2018-06-29T08:49:12.783Z,85.00
2018-06-29T08:51:42.487Z,83.95
2018-06-29T08:54:12.158Z,84.07
2018-06-29T08:56:41.899Z,84.38
2018-06-29T08:59:11.596Z,84.22
2018-06-29T09:01:41.341Z,84.74
2018-06-29T09:04:11.060Z,84.45
2018-06-29T09:06:40.773Z,84.08
2018-06-29T09:09:10.635Z,89.48
2018-06-29T09:11:40.513Z,88.08
2018-06-29T09:14:10.213Z,94.22
2018-06-29T09:16:39.881Z,93.09
2018-06-29T09:19:09.649Z,93.81
2018-06-29T09:21:39.383Z,92.97
2018-06-29T09:24:09.092Z,91.47
2018-06-29T09:26:39.216Z,89.63
2018-06-29T09:29:08.885Z,90.48
2018-06-29T09:31:38.683Z,90.01
2018-06-29T09:34:08.478Z,88.99
2018-06-29T09:36:38.171Z,89.40
2018-06-29T09:39:10.172Z,91.88
2018-06-29T09:41:39.910Z,92.73
2018-06-29T09:44:09.616Z,94.90
2018-06-29T09:46:39.417Z,96.32
2018-06-29T09:49:09.076Z,98.29
2018-06-29T09:51:38.794Z,97.98
2018-06-29T09:54:08.615Z,100.00
2018-06-29T09:56:38.376Z,100.00
2018-06-29T09:59:08.532Z,100.00
2018-06-29T10:01:38.260Z,100.00
2018-06-29T10:04:08.024Z,100.00
2018-06-29T10:06:37.729Z,97.04
2018-06-29T10:09:09.268Z,95.70
2018-06-29T10:11:39.034Z,95.48
2018-06-29T10:14:08.808Z,96.19
2018-06-29T10:16:38.459Z,92.89
2018-06-29T10:19:09.232Z,95.12
2018-06-29T10:21:38.912Z,98.19
2018-06-29T10:24:08.712Z,92.45
2018-06-29T10:26:38.453Z,88.79
2018-06-29T10:29:08.598Z,89.84
2018-06-29T10:31:38.520Z,89.30
2018-06-29T10:34:08.296Z,85.47
2018-06-29T10:36:38.014Z,81.17
2018-06-29T10:39:11.054Z,76.69
2018-06-29T10:41:41.158Z,75.13
2018-06-29T10:44:11.039Z,76.90
2018-06-29T10:46:41.783Z,75.83
2018-06-29T10:49:11.481Z,75.41
2018-06-29T10:51:41.160Z,76.91
2018-06-29T10:54:10.860Z,79.77
2018-06-29T10:56:40.549Z,80.55
2018-06-29T10:59:10.196Z,77.55
2018-06-29T11:01:39.903Z,76.98
2018-06-29T11:04:09.589Z,79.45
2018-06-29T11:06:39.334Z,77.00
2018-06-29T11:09:10.346Z,80.74
2018-06-29T11:11:40.061Z,81.10
2018-06-29T11:14:09.848Z,69.40
2018-06-29T11:16:39.549Z,73.43
2018-06-29T11:19:09.233Z,72.39
2018-06-29T11:21:38.926Z,71.83
2018-06-29T11:24:08.627Z,66.90
2018-06-29T11:26:38.281Z,66.07
2018-06-29T11:29:08.089Z,71.88
2018-06-29T11:31:37.764Z,79.56
2018-06-29T11:34:07.572Z,73.63
2018-06-29T11:36:37.313Z,69.41
2018-06-29T11:39:11.047Z,78.34
2018-06-29T11:41:41.003Z,78.51
2018-06-29T11:44:11.174Z,75.95
2018-06-29T11:46:40.856Z,73.13
2018-06-29T11:49:10.600Z,72.86
2018-06-29T11:51:40.621Z,75.29
2018-06-29T11:54:10.338Z,75.29
2018-06-29T11:56:40.116Z,75.22
2018-06-29T11:59:09.814Z,74.80
2018-06-29T12:01:39.605Z,74.32
2018-06-29T12:04:09.297Z,74.52
2018-06-29T12:06:38.984Z,72.19
2018-06-29T12:09:10.697Z,70.63
2018-06-29T12:11:40.720Z,69.87
2018-06-29T12:14:10.501Z,62.76
2018-06-29T12:16:40.290Z,71.00
2018-06-29T12:19:09.961Z,72.21
2018-06-29T12:21:39.957Z,66.77
2018-06-29T12:24:09.688Z,70.26
2018-06-29T12:26:39.449Z,69.99
2018-06-29T12:29:09.221Z,67.27
2018-06-29T12:31:38.936Z,70.93
2018-06-29T12:34:08.661Z,70.81
2018-06-29T12:36:38.357Z,68.81
2018-06-29T12:39:08.965Z,67.73
2018-06-29T12:41:39.381Z,63.94
2018-06-29T12:44:09.716Z,65.32
2018-06-29T12:46:39.662Z,64.51
2018-06-29T12:49:09.399Z,62.10
2018-06-29T12:51:39.276Z,58.40
2018-06-29T12:54:09.093Z,56.66
2018-06-29T12:56:38.767Z,62.12
2018-06-29T12:59:08.488Z,58.92
2018-06-29T13:01:48.652Z,60.21
2018-06-29T13:04:24.295Z,65.08
2018-06-29T13:06:54.072Z,65.08
2018-06-29T13:09:23.747Z,71.27
2018-06-29T13:11:53.466Z,71.86
2018-06-29T13:14:23.271Z,73.20
2018-06-29T13:16:53.028Z,72.35
2018-06-29T13:19:22.735Z,70.17
2018-06-29T13:21:52.594Z,68.79
2018-06-29T13:24:22.334Z,70.09
2018-06-29T13:26:52.052Z,75.48
2018-06-29T13:29:21.792Z,76.39
2018-06-29T13:31:51.583Z,78.25
2018-06-29T13:34:21.288Z,78.00
2018-06-29T13:36:50.980Z,78.18
2018-06-29T13:39:20.763Z,82.33
2018-06-29T13:41:50.945Z,82.05
2018-06-29T13:44:20.841Z,84.33
2018-06-29T13:46:50.500Z,87.25
2018-06-29T13:49:20.576Z,88.56
2018-06-29T13:51:50.277Z,83.98
2018-06-29T13:54:20.640Z,77.03
2018-06-29T13:56:50.360Z,72.87
2018-06-29T13:59:20.453Z,68.55
2018-06-29T14:01:50.153Z,66.76
2018-06-29T14:04:19.870Z,64.96
2018-06-29T14:06:49.587Z,59.49
2018-06-29T14:09:19.308Z,55.19
2018-06-29T14:11:49.398Z,57.16
2018-06-29T14:14:19.092Z,52.50
2018-06-29T14:16:49.187Z,55.46
2018-06-29T14:19:18.875Z,58.88
2018-06-29T14:21:48.628Z,61.90
2018-06-29T14:24:18.325Z,64.14
2018-06-29T14:26:48.025Z,58.55
2018-06-29T14:29:17.778Z,63.63
2018-06-29T14:31:47.830Z,64.29
2018-06-29T14:34:17.607Z,68.46
2018-06-29T14:36:47.368Z,69.32
2018-06-29T14:39:17.087Z,70.67
2018-06-29T14:41:46.885Z,67.93
2018-06-29T14:44:16.657Z,65.48
2018-06-29T14:46:46.388Z,66.07
2018-06-29T14:49:16.234Z,66.26
2018-06-29T14:51:45.943Z,63.52
2018-06-29T14:54:15.680Z,58.99
2018-06-29T14:56:45.622Z,48.96
2018-06-29T14:59:15.333Z,52.71
2018-06-29T15:01:45.336Z,50.28
2018-06-29T15:04:15.077Z,53.66
2018-06-29T15:06:44.800Z,50.63
2018-06-29T15:09:14.671Z,49.81
2018-06-29T15:11:44.356Z,49.61
2018-06-29T15:14:14.060Z,51.12
2018-06-29T15:16:43.887Z,48.07
2018-06-29T15:19:13.616Z,50.25
2018-06-29T15:21:43.411Z,46.41
2018-06-29T15:24:13.109Z,45.00
2018-06-29T15:26:42.907Z,47.48
2018-06-29T15:29:12.601Z,45.95
2018-06-29T15:31:42.303Z,44.72
2018-06-29T15:34:12.166Z,45.92
2018-06-29T15:36:41.841Z,45.93
2018-06-29T15:39:13.208Z,44.58
2018-06-29T15:41:42.946Z,45.55
2018-06-29T15:44:12.805Z,47.81
2018-06-29T15:46:42.547Z,51.20
2018-06-29T15:49:12.344Z,54.16
2018-06-29T15:51:42.081Z,55.63
2018-06-29T15:54:11.848Z,58.40
2018-06-29T15:56:41.624Z,59.85
2018-06-29T15:59:11.737Z,60.23
2018-06-29T16:01:41.444Z,59.66
2018-06-29T16:04:11.129Z,60.85
2018-06-29T16:06:40.826Z,59.19
2018-06-29T16:09:11.407Z,59.18
2018-06-29T16:11:41.205Z,62.43
2018-06-29T16:14:10.884Z,63.08
2018-06-29T16:16:40.609Z,61.50
2018-06-29T16:19:10.320Z,61.52
2018-06-29T16:21:40.125Z,63.83
2018-06-29T16:24:09.934Z,64.15
2018-06-29T16:26:39.637Z,64.51
2018-06-29T16:29:09.470Z,64.25
2018-06-29T16:31:39.160Z,63.65
2018-06-29T16:34:09.188Z,60.74
2018-06-29T16:36:38.959Z,58.53
2018-06-29T16:39:10.794Z,59.59
2018-06-29T16:41:40.657Z,59.84
2018-06-29T16:44:11.297Z,60.24
2018-06-29T16:46:41.104Z,62.57
2018-06-29T16:49:10.880Z,64.93
2018-06-29T16:51:40.604Z,64.83
2018-06-29T16:54:10.420Z,66.17
2018-06-29T16:56:40.104Z,68.29
2018-06-29T16:59:09.921Z,69.72
2018-06-29T17:01:39.627Z,71.49
2018-06-29T17:04:09.415Z,71.73
2018-06-29T17:06:39.214Z,74.97
2018-06-29T17:09:09.610Z,76.67
2018-06-29T17:11:39.488Z,76.84
2018-06-29T17:14:09.265Z,79.24
2018-06-29T17:16:38.981Z,81.44
2018-06-29T17:19:08.748Z,83.72
2018-06-29T17:21:38.589Z,84.10
2018-06-29T17:24:08.341Z,84.58
2018-06-29T17:26:38.358Z,84.18
2018-06-29T17:29:08.186Z,84.55
2018-06-29T17:31:37.843Z,84.93
2018-06-29T17:34:07.997Z,83.57
2018-06-29T17:36:37.656Z,83.92
2018-06-29T17:39:09.360Z,83.13
2018-06-29T17:41:39.237Z,81.44
2018-06-29T17:44:09.044Z,79.71
2018-06-29T17:46:38.937Z,81.11
2018-06-29T17:49:08.646Z,77.82
2018-06-29T17:51:38.404Z,77.36
2018-06-29T17:54:08.196Z,77.30
2018-06-29T17:56:37.957Z,77.53
2018-06-29T17:59:07.659Z,78.21
2018-06-29T18:01:37.461Z,78.88
2018-06-29T18:04:07.232Z,79.39
2018-06-29T18:06:37.027Z,80.34
2018-06-29T18:09:08.857Z,81.29
2018-06-29T18:11:38.697Z,81.81
2018-06-29T18:14:08.729Z,82.06
2018-06-29T18:16:38.548Z,82.20
2018-06-29T18:19:08.329Z,83.28
2018-06-29T18:21:38.214Z,83.25
2018-06-29T18:24:07.952Z,83.11
2018-06-29T18:26:37.677Z,85.68
2018-06-29T18:29:07.408Z,89.37
2018-06-29T18:31:37.429Z,93.96
2018-06-29T18:34:07.183Z,97.95
2018-06-29T18:36:36.889Z,99.38
2018-06-29T18:39:08.873Z,100.00
2018-06-29T18:41:38.657Z,100.00
2018-06-29T18:44:08.502Z,100.00
2018-06-29T18:46:38.322Z,100.00
2018-06-29T18:49:08.247Z,100.00
2018-06-29T18:51:38.528Z,100.00
2018-06-29T18:54:08.703Z,100.00
2018-06-29T18:56:38.821Z,100.00
2018-06-29T18:59:08.540Z,100.00
2018-06-29T19:01:38.547Z,100.00
2018-06-29T19:04:08.482Z,100.00
2018-06-29T19:06:38.267Z,100.00
2018-06-29T19:09:09.497Z,100.00
2018-06-29T19:11:39.868Z,100.00
2018-06-29T19:14:10.135Z,100.00
2018-06-29T19:16:39.820Z,100.00
2018-06-29T19:19:15.693Z,100.00
2018-06-29T19:21:45.479Z,100.00
2018-06-29T19:24:15.475Z,100.00
2018-06-29T19:26:45.200Z,100.00
2018-06-29T19:29:14.919Z,100.00
2018-06-29T19:31:44.766Z,100.00
2018-06-29T19:34:14.482Z,100.00
2018-06-29T19:36:44.314Z,100.00
2018-06-29T19:39:14.043Z,100.00
2018-06-29T19:41:43.837Z,100.00
2018-06-29T19:44:13.684Z,100.00
2018-06-29T19:46:43.389Z,100.00
2018-06-29T19:49:13.497Z,100.00
2018-06-29T19:51:43.231Z,100.00
2018-06-29T19:54:12.955Z,100.00
2018-06-29T19:56:42.648Z,100.00
2018-06-29T19:59:12.302Z,100.00
2018-06-29T20:01:43.305Z,100.00
2018-06-29T20:04:13.047Z,100.00
2018-06-29T20:06:42.772Z,100.00
2018-06-29T20:09:14.095Z,100.00
2018-06-29T20:11:43.820Z,100.00
2018-06-29T20:14:15.645Z,100.00
2018-06-29T20:16:45.631Z,100.00
2018-06-29T20:19:15.643Z,100.00
2018-06-29T20:21:45.423Z,100.00
2018-06-29T20:24:15.232Z,100.00
2018-06-29T20:26:44.980Z,100.00
2018-06-29T20:29:14.715Z,100.00
2018-06-29T20:31:44.478Z,100.00
2018-06-29T20:34:14.742Z,100.00
2018-06-29T20:36:44.478Z,100.00
2018-06-29T20:39:14.237Z,100.00
2018-06-29T20:41:43.897Z,100.00
2018-06-29T20:44:13.636Z,100.00
2018-06-29T20:46:43.333Z,100.00
2018-06-29T20:49:13.365Z,100.00
2018-06-29T20:51:43.166Z,100.00
2018-06-29T20:54:13.205Z,100.00
2018-06-29T20:56:43.544Z,100.00
2018-06-29T20:59:13.781Z,100.00
2018-06-29T21:01:44.060Z,100.00
2018-06-29T21:04:14.357Z,100.00
2018-06-29T21:06:44.178Z,100.00
2018-06-29T21:09:13.989Z,100.00
2018-06-29T21:11:43.873Z,100.00
2018-06-29T21:14:14.008Z,100.00
2018-06-29T21:16:44.635Z,100.00
2018-06-29T21:19:14.753Z,100.00
2018-06-29T21:21:44.473Z,100.00
2018-06-29T21:24:14.215Z,100.00
2018-06-29T21:26:43.965Z,100.00
2018-06-29T21:29:13.737Z,100.00
2018-06-29T21:31:43.430Z,100.00
2018-06-29T21:34:13.127Z,100.00
2018-06-29T21:36:42.849Z,100.00
2018-06-29T21:39:12.821Z,100.00
2018-06-29T21:41:42.869Z,100.00
2018-06-29T21:44:12.642Z,100.00
2018-06-29T21:46:42.402Z,100.00
2018-06-29T21:49:12.126Z,100.00
2018-06-29T21:51:41.895Z,100.00
2018-06-29T21:54:11.904Z,100.00
2018-06-29T21:56:41.631Z,100.00
2018-06-29T21:59:11.457Z,100.00
2018-06-29T22:01:41.231Z,100.00
2018-06-29T22:04:21.701Z,100.00
2018-06-29T22:06:51.481Z,100.00
2018-06-29T22:09:21.549Z,100.00
2018-06-29T22:11:51.248Z,100.00
2018-06-29T22:14:21.316Z,100.00
2018-06-29T22:16:51.123Z,100.00
2018-06-29T22:19:20.905Z,100.00
2018-06-29T22:21:50.952Z,100.00
2018-06-29T22:24:20.651Z,100.00
2018-06-29T22:26:50.396Z,100.00
2018-06-29T22:29:20.461Z,100.00
2018-06-29T22:31:50.258Z,100.00
2018-06-29T22:34:19.984Z,100.00
2018-06-29T22:36:49.692Z,100.00
2018-06-29T22:39:19.460Z,100.00
2018-06-29T22:41:49.144Z,100.00
2018-06-29T22:44:18.853Z,100.00
2018-06-29T22:46:48.572Z,100.00
2018-06-29T22:49:18.380Z,100.00
2018-06-29T22:51:48.091Z,100.00
2018-06-29T22:54:17.917Z,100.00
2018-06-29T22:56:47.654Z,100.00
2018-06-29T22:59:17.739Z,100.00
2018-06-29T23:01:47.699Z,100.00
2018-06-29T23:04:18.049Z,100.00
2018-06-29T23:06:48.741Z,100.00
2018-06-29T23:09:18.605Z,100.00
2018-06-29T23:11:48.829Z,100.00
2018-06-29T23:14:18.744Z,100.00
2018-06-29T23:16:48.792Z,100.00
2018-06-29T23:19:18.692Z,100.00
2018-06-29T23:21:48.768Z,100.00
2018-06-29T23:24:19.039Z,100.00
2018-06-29T23:26:48.992Z,100.00
2018-06-29T23:29:18.930Z,100.00
2018-06-29T23:31:49.159Z,100.00
2018-06-29T23:34:19.321Z,100.00
2018-06-29T23:36:49.661Z,100.00
2018-06-29T23:39:19.697Z,100.00
2018-06-29T23:41:49.952Z,100.00
2018-06-29T23:44:19.947Z,100.00
2018-06-29T23:46:50.244Z,100.00
2018-06-29T23:49:20.230Z,100.00
2018-06-29T23:51:50.081Z,100.00
2018-06-29T23:54:19.994Z,100.00
2018-06-29T23:56:49.939Z,100.00
2018-06-29T23:59:19.947Z,100.00
